Time;durP1;ratioP1;P1;durP2;ratioP2;P2;SDS_P1;SDS_P2;PMS_P1;PMS_P2;Temp;Humidity;BMP_temperature;BMP_pressure;BME280_temperature;BME280_humidity;BME280_pressure;Samples;Min_cycle;Max_cycle;Signal;HPM_P1;HPM_P2
2022/11/05 00:10:37;;;;;;;16.50;9.48;;;;;;;9.81;81.45;99697.00;5011215;28;20036;-81
2022/11/05 00:18:32;;;;;;;21.70;9.00;;;;;;;9.71;82.34;99694.19;5018020;28;20048;-82
2022/11/05 00:20:57;;;;;;;21.60;12.00;;;;;;;9.95;81.79;99701.16;5028773;28;20037;-82
2022/11/05 00:26:08;;;;;;;15.05;7.85;;;;;;;9.79;81.86;99699.16;5010909;28;20346;-82
2022/11/05 00:28:34;;;;;;;15.32;8.60;;;;;;;9.88;81.69;99707.66;5010393;28;20052;-81
2022/11/05 00:31:13;;;;;;;16.02;8.50;;;;;;;9.65;82.10;99712.38;5009625;28;20029;-82
2022/11/05 00:33:41;;;;;;;24.52;8.32;;;;;;;9.92;81.53;99708.78;5007605;28;20145;-83
2022/11/05 00:36:08;;;;;;;19.45;9.93;;;;;;;9.53;81.77;99715.28;5011217;28;20128;-82
2022/11/05 00:38:34;;;;;;;17.10;8.07;;;;;;;10.04;80.68;99707.75;5013283;28;20045;-79
2022/11/05 00:41:00;;;;;;;20.67;9.80;;;;;;;9.81;81.01;99715.22;5013574;28;20038;-80
2022/11/05 00:46:10;;;;;;;17.52;8.27;;;;;;;9.77;81.52;99722.25;5013841;28;20044;-82
2022/11/05 00:51:23;;;;;;;14.02;8.85;;;;;;;9.88;81.46;99734.06;4982995;28;20692;-82
2022/11/05 00:53:49;;;;;;;14.27;7.53;;;;;;;10.01;80.29;99724.63;5013025;28;20046;-79
2022/11/05 00:56:14;;;;;;;21.23;8.70;;;;;;;9.59;80.88;99740.63;5013319;28;20034;-81
2022/11/05 00:58:39;;;;;;;17.95;8.02;;;;;;;9.79;80.50;99737.28;5014073;28;20550;-82
2022/11/05 01:01:04;;;;;;;15.87;8.03;;;;;;;9.41;81.42;99736.41;5013153;28;20537;-80
2022/11/05 01:03:33;;;;;;;14.93;7.50;;;;;;;10.03;80.11;99741.50;5012885;28;20314;-79
2022/11/05 01:06:07;;;;;;;14.18;7.40;;;;;;;9.99;79.70;99741.22;5013521;28;20026;-81
2022/11/05 01:08:32;;;;;;;16.15;8.77;;;;;;;9.93;79.78;99734.94;5013460;28;20049;-82
2022/11/05 01:10:58;;;;;;;15.38;8.65;;;;;;;9.85;79.55;99740.03;5013840;28;20113;-82
2022/11/05 01:13:27;;;;;;;20.65;7.88;;;;;;;9.46;80.81;99742.72;5013206;28;20062;-80
2022/11/05 01:15:52;;;;;;;17.10;8.52;;;;;;;9.35;81.19;99743.69;5013780;28;20037;-79
2022/11/05 01:18:19;;;;;;;15.70;7.53;;;;;;;9.56;81.03;99749.31;5018720;28;20454;-81
2022/11/05 01:20:45;;;;;;;20.50;9.23;;;;;;;9.63;79.97;99744.50;5033479;28;20040;-79
2022/11/05 01:23:10;;;;;;;16.02;8.65;;;;;;;9.56;80.15;99739.25;5022615;28;20050;-81
2022/11/05 01:25:35;;;;;;;14.50;8.07;;;;;;;9.65;79.45;99739.59;5033326;28;20402;-79
2022/11/05 01:28:02;;;;;;;18.15;9.40;;;;;;;9.38;80.57;99751.31;5033317;28;20068;-81
2022/11/05 01:30:27;;;;;;;18.50;7.57;;;;;;;9.82;79.09;99755.00;5032033;28;20036;-82
2022/11/05 01:32:53;;;;;;;15.60;8.15;;;;;;;9.96;78.41;99752.66;5024825;28;20050;-80
2022/11/05 01:35:18;;;;;;;18.15;8.85;;;;;;;10.02;77.81;99751.59;5013180;28;20045;-82
2022/11/05 01:37:44;;;;;;;14.10;7.82;;;;;;;9.83;78.68;99759.34;5012929;28;20045;-78
2022/11/05 01:40:12;;;;;;;15.38;8.18;;;;;;;9.83;77.96;99763.97;4995653;28;20034;-82
2022/11/05 01:42:38;;;;;;;20.35;8.70;;;;;;;9.64;78.83;99773.34;5012968;28;20681;-83
2022/11/05 01:45:13;;;;;;;14.32;7.13;;;;;;;9.61;79.40;99773.88;5012715;28;20066;-81
2022/11/05 01:47:46;;;;;;;12.85;7.25;;;;;;;9.72;78.46;99768.53;5011795;28;20038;-83
2022/11/05 01:50:20;;;;;;;29.27;10.57;;;;;;;9.80;78.03;99774.28;5032695;28;20037;-81
2022/11/05 01:52:48;;;;;;;14.32;7.22;;;;;;;9.78;77.75;99779.19;5016489;28;20048;-81
2022/11/05 01:55:18;;;;;;;21.98;9.52;;;;;;;9.75;78.38;99773.44;5013035;28;20033;-80
2022/11/05 01:57:44;;;;;;;15.32;7.65;;;;;;;9.71;78.57;99766.88;5013117;28;20078;-81
2022/11/05 02:00:10;;;;;;;17.30;7.53;;;;;;;9.82;77.61;99771.34;5012788;28;20038;-82
2022/11/05 02:02:36;;;;;;;17.17;7.75;;;;;;;9.63;78.31;99777.16;5016882;28;20045;-82
2022/11/05 02:05:05;;;;;;;18.25;8.75;;;;;;;9.72;78.47;99780.25;5032357;28;20037;-82
2022/11/05 02:07:32;;;;;;;16.52;8.02;;;;;;;9.65;78.25;99782.34;5032046;28;20049;-82
2022/11/05 02:10:07;;;;;;;13.40;7.32;;;;;;;9.27;79.26;99793.94;5032107;28;20037;-79
2022/11/05 02:12:36;;;;;;;11.07;6.43;;;;;;;9.53;78.47;99793.38;5027123;28;20049;-81
2022/11/05 02:15:03;;;;;;;12.48;6.70;;;;;;;9.84;77.14;99785.50;5012026;28;20037;-81
2022/11/05 02:17:40;;;;;;;14.23;8.65;;;;;;;9.74;77.41;99788.13;5012913;28;20037;-82
2022/11/05 02:20:41;;;;;;;16.40;7.55;;;;;;;9.67;77.33;99801.97;4992997;28;20486;-80
2022/11/05 02:23:35;;;;;;;18.50;8.15;;;;;;;9.64;77.43;99800.56;5000701;28;20104;-81
2022/11/05 02:26:27;;;;;;;15.55;9.18;;;;;;;9.70;77.49;99806.91;5012246;28;20045;-80
2022/11/05 02:29:11;;;;;;;16.92;9.77;;;;;;;9.73;76.90;99803.66;5012129;28;20136;-81
2022/11/05 02:31:51;;;;;;;17.35;9.85;;;;;;;9.80;76.70;99811.63;5029737;28;20481;-82
2022/11/05 02:34:32;;;;;;;23.60;14.93;;;;;;;9.78;76.96;99800.97;5012539;28;20125;-83
2022/11/05 02:37:09;;;;;;;17.13;9.80;;;;;;;9.78;77.27;99802.88;5012061;28;20070;-80
2022/11/05 02:39:54;;;;;;;18.50;9.18;;;;;;;9.59;77.29;99808.69;5011733;28;20137;-83
2022/11/05 02:42:44;;;;;;;16.33;8.18;;;;;;;9.68;77.31;99815.31;5010612;28;20034;-78
2022/11/05 02:45:15;;;;;;;16.02;7.78;;;;;;;9.62;77.23;99829.13;5010853;28;20034;-81
2022/11/05 02:47:50;;;;;;;17.65;7.85;;;;;;;9.63;77.20;99828.88;5011546;28;20661;-81
2022/11/05 02:50:25;;;;;;;22.00;10.15;;;;;;;9.62;77.35;99823.69;5013606;28;20467;-81
2022/11/05 02:53:09;;;;;;;18.42;12.57;;;;;;;9.60;77.55;99823.94;5023029;28;20481;-79
2022/11/05 02:55:59;;;;;;;19.60;10.52;;;;;;;9.62;77.70;99823.69;5011326;28;20021;-82
2022/11/05 02:58:28;;;;;;;21.83;11.93;;;;;;;9.78;77.09;99819.22;5010858;28;20042;-82
2022/11/05 03:00:57;;;;;;;19.25;9.20;;;;;;;9.68;77.56;99817.22;5011720;28;20506;-81
2022/11/05 03:03:44;;;;;;;15.68;7.50;;;;;;;9.67;77.17;99821.00;5022514;28;20041;-78
2022/11/05 03:06:33;;;;;;;14.23;7.82;;;;;;;9.67;78.16;99821.00;5030924;28;20616;-82
2022/11/05 03:09:23;;;;;;;23.67;10.60;;;;;;;9.51;77.93;99822.75;5030803;28;20037;-80
2022/11/05 03:12:10;;;;;;;11.95;7.75;;;;;;;9.38;78.53;99818.53;5031085;28;20107;-79
2022/11/05 03:15:13;;;;;;;17.75;8.95;;;;;;;9.61;77.47;99817.41;4991387;28;20026;-82
2022/11/05 03:17:56;;;;;;;15.18;7.72;;;;;;;9.53;78.05;99810.53;4991796;28;20037;-81
2022/11/05 03:20:21;;;;;;;16.80;8.90;;;;;;;9.45;77.88;99820.00;5030762;28;20026;-82
2022/11/05 03:23:16;;;;;;;12.03;7.37;;;;;;;9.56;77.41;99814.63;5023012;28;20112;-80
2022/11/05 03:25:47;;;;;;;14.02;7.35;;;;;;;9.73;76.56;99813.72;5010906;28;20631;-82
2022/11/05 03:28:13;;;;;;;16.80;8.38;;;;;;;9.74;76.15;99805.31;5011152;28;20478;-81
2022/11/05 03:30:40;;;;;;;12.20;6.75;;;;;;;9.64;76.63;99816.91;5010957;28;20116;-82
2022/11/05 03:33:13;;;;;;;13.20;8.40;;;;;;;9.76;76.35;99802.31;5010270;28;20103;-82
2022/11/05 03:35:49;;;;;;;16.85;9.25;;;;;;;9.66;76.88;99809.28;5010933;28;20026;-82
2022/11/05 03:38:22;;;;;;;16.50;7.57;;;;;;;9.67;76.20;99810.94;5010450;28;20022;-81
2022/11/05 03:40:52;;;;;;;16.08;9.48;;;;;;;9.60;77.01;99821.22;5011023;28;20045;-80
2022/11/05 03:43:21;;;;;;;16.08;8.15;;;;;;;9.72;76.27;99820.25;5010113;28;20030;-80
2022/11/05 03:45:54;;;;;;;13.73;7.97;;;;;;;9.41;76.94;99827.03;5010098;28;20037;-81
2022/11/05 03:48:24;;;;;;;20.75;11.05;;;;;;;9.39;77.34;99829.19;5016764;28;20044;-81
2022/11/05 03:51:01;;;;;;;16.17;8.88;;;;;;;9.46;77.15;99827.06;5030052;28;20441;-81
2022/11/05 03:53:36;;;;;;;14.98;9.18;;;;;;;9.31;77.75;99835.06;5029474;28;20037;-81
2022/11/05 03:56:10;;;;;;;19.40;9.98;;;;;;;9.27;77.96;99836.66;5030576;28;20033;-80
2022/11/05 03:58:35;;;;;;;;;;;;;;;9.51;76.88;99833.66;5030951;28;20059;-82
2022/11/05 04:01:01;;;;;;;21.38;10.45;;;;;;;9.53;76.95;99842.38;5030651;28;19909;-81
2022/11/05 04:03:34;;;;;;;18.50;10.10;;;;;;;9.56;76.47;99841.84;5017130;28;20084;-81
2022/11/05 04:14:12;;;;;;;20.73;12.07;;;;;;;9.42;77.17;99864.03;5013807;28;20552;-82
2022/11/05 04:24:06;;;;;;;22.27;12.20;;;;;;;9.28;78.36;99862.78;5028321;28;20639;-82
2022/11/05 04:24:50;;;;;;;25.90;14.30;;;;;;;9.39;77.37;99842.78;5014519;28;20049;-82
2022/11/05 04:27:15;;;;;;;31.97;16.20;;;;;;;9.41;77.37;99850.69;5014030;28;20042;-81
2022/11/05 04:32:24;;;;;;;26.20;14.75;;;;;;;9.32;77.44;99861.19;5013501;28;20032;-80
2022/11/05 04:34:49;;;;;;;23.30;12.40;;;;;;;9.34;77.35;99865.31;5013741;28;20471;-82
2022/11/05 04:37:14;;;;;;;31.30;16.83;;;;;;;9.26;77.50;99860.31;5013706;28;20398;-79
2022/11/05 04:39:40;;;;;;;25.67;14.17;;;;;;;9.40;76.91;99860.75;5013696;28;20263;-81
2022/11/05 04:42:05;;;;;;;25.13;13.13;;;;;;;9.35;76.67;99855.25;5013366;28;20721;-82
2022/11/05 04:44:30;;;;;;;28.63;15.63;;;;;;;9.41;76.40;99851.50;5013696;28;20313;-82
2022/11/05 04:46:55;;;;;;;33.63;18.30;;;;;;;9.35;76.68;99852.53;5013479;28;20273;-80
2022/11/05 04:49:21;;;;;;;30.33;14.43;;;;;;;9.26;76.84;99864.91;5027890;28;20266;-81
2022/11/05 04:51:46;;;;;;;26.73;15.60;;;;;;;9.30;76.39;99860.63;5033483;28;20025;-81
2022/11/05 04:54:11;;;;;;;23.02;12.80;;;;;;;9.33;76.69;99871.00;5014275;28;20780;-81
2022/11/05 04:56:36;;;;;;;23.33;13.57;;;;;;;9.17;77.26;99868.06;5013548;28;20030;-83
2022/11/05 04:59:02;;;;;;;25.40;12.37;;;;;;;9.32;76.64;99872.91;5013466;28;20298;-80
2022/11/05 05:01:27;;;;;;;23.30;13.13;;;;;;;9.21;77.11;99868.41;5013463;28;20263;-80
2022/11/05 05:03:53;;;;;;;21.50;12.20;;;;;;;9.29;76.37;99876.13;5013022;28;20259;-80
2022/11/05 05:06:19;;;;;;;30.55;14.90;;;;;;;9.30;76.09;99868.78;5013445;28;20308;-81
2022/11/05 05:08:50;;;;;;;32.58;16.10;;;;;;;9.23;76.49;99871.72;5013369;28;20113;-81
2022/11/05 05:11:17;;;;;;;29.23;16.45;;;;;;;9.24;76.39;99865.19;5013028;28;20030;-81
2022/11/05 05:13:43;;;;;;;27.77;15.30;;;;;;;9.23;76.35;99872.50;4994921;28;20483;-80
2022/11/05 05:16:25;;;;;;;26.90;15.23;;;;;;;9.18;76.88;99874.34;5012742;28;20032;-81
2022/11/05 05:18:51;;;;;;;27.83;15.88;;;;;;;9.14;77.03;99876.75;5023081;28;20059;-79
2022/11/05 05:24:03;;;;;;;24.48;13.75;;;;;;;9.09;76.97;99876.72;5032172;28;20044;-82
2022/11/05 05:26:28;;;;;;;23.77;12.80;;;;;;;9.07;76.73;99873.41;5033058;28;20044;-82
2022/11/05 05:28:54;;;;;;;26.00;12.32;;;;;;;9.14;76.46;99874.03;5032362;28;20112;-80
2022/11/05 05:31:20;;;;;;;21.13;12.85;;;;;;;9.06;76.70;99885.34;5032180;28;20033;-80
2022/11/05 05:33:45;;;;;;;20.92;12.55;;;;;;;9.15;76.08;99883.03;5017361;28;20034;-81
2022/11/05 05:36:11;;;;;;;23.25;12.20;;;;;;;9.09;76.69;99887.59;5012410;28;20033;-80
2022/11/05 05:38:36;;;;;;;21.00;10.35;;;;;;;9.15;76.02;99883.84;5012401;28;20434;-81
2022/11/05 05:41:01;;;;;;;25.23;12.63;;;;;;;9.05;76.55;99891.88;5012796;28;20037;-79
2022/11/05 05:43:31;;;;;;;22.88;10.68;;;;;;;8.99;76.85;99877.38;5011626;28;20290;-81
2022/11/05 05:46:00;;;;;;;19.27;10.77;;;;;;;8.97;76.24;99885.78;5012679;28;20053;-81
2022/11/05 05:48:25;;;;;;;25.35;12.73;;;;;;;8.86;76.99;99884.00;5018859;28;20056;-81
2022/11/05 05:50:50;;;;;;;20.10;10.47;;;;;;;8.89;77.33;99894.38;5032341;28;20486;-81
2022/11/05 05:53:16;;;;;;;21.02;10.55;;;;;;;8.82;77.43;99894.56;5021094;28;20256;-81
2022/11/05 05:55:41;;;;;;;21.85;10.20;;;;;;;8.87;77.19;99889.19;5011854;28;20033;-81
2022/11/05 05:58:06;;;;;;;23.00;9.63;;;;;;;8.91;77.04;99886.78;5012072;28;20034;-81
2022/11/05 06:00:31;;;;;;;18.03;10.13;;;;;;;8.87;77.13;99896.50;5012638;28;20272;-80
2022/11/05 06:02:57;;;;;;;19.35;10.00;;;;;;;8.91;77.06;99896.84;5011819;28;20267;-82
2022/11/05 06:05:22;;;;;;;20.57;11.87;;;;;;;8.81;76.94;99902.94;5012063;28;20037;-80
2022/11/05 06:07:56;;;;;;;15.97;9.47;;;;;;;8.91;76.59;99913.97;5011769;28;20276;-80
2022/11/05 06:10:23;;;;;;;19.75;8.98;;;;;;;8.88;76.33;99909.06;5012232;28;20390;-82
2022/11/05 06:12:49;;;;;;;19.13;8.68;;;;;;;8.82;76.95;99923.63;5011866;28;20037;-80
2022/11/05 06:15:14;;;;;;;16.50;9.57;;;;;;;8.81;77.22;99919.25;5011947;28;20037;-83
2022/11/05 06:17:42;;;;;;;22.23;10.37;;;;;;;8.83;76.64;99922.56;5012178;28;20514;-80
2022/11/05 06:20:08;;;;;;;23.55;10.60;;;;;;;8.82;76.73;99923.63;5032009;28;20383;-79
2022/11/05 06:22:33;;;;;;;22.95;9.50;;;;;;;8.59;77.88;99929.00;5026096;28;20066;-79
2022/11/05 06:24:58;;;;;;;16.00;9.17;;;;;;;8.83;76.74;99933.44;5011921;28;20060;-82
2022/11/05 06:27:24;;;;;;;15.03;8.97;;;;;;;8.73;77.22;99934.94;5011871;28;20263;-82
2022/11/05 06:29:49;;;;;;;20.10;10.33;;;;;;;8.66;77.55;99937.00;5011894;28;20263;-81
2022/11/05 06:32:14;;;;;;;16.17;8.47;;;;;;;8.73;77.35;99939.53;5011493;28;20905;-81
2022/11/05 06:34:39;;;;;;;18.47;9.33;;;;;;;8.91;76.71;99934.94;5017212;28;20247;-81
2022/11/05 06:37:05;;;;;;;20.77;11.63;;;;;;;8.87;76.57;99940.00;5031048;28;20301;-79
2022/11/05 06:39:30;;;;;;;17.40;9.47;;;;;;;8.83;76.60;99944.31;5031227;28;20255;-83
2022/11/05 06:41:55;;;;;;;21.33;11.27;;;;;;;8.63;77.21;99943.75;5030954;28;20739;-82
2022/11/05 06:44:21;;;;;;;16.38;10.20;;;;;;;8.83;76.14;99945.13;5011779;28;20456;-80
2022/11/05 06:46:46;;;;;;;18.02;10.27;;;;;;;8.82;76.48;99940.78;5011437;28;20054;-82
2022/11/05 06:49:11;;;;;;;19.50;10.13;;;;;;;8.75;76.88;99943.66;5024462;28;20064;-80
2022/11/05 06:51:37;;;;;;;23.47;10.67;;;;;;;8.83;76.28;99944.31;5025873;28;20064;-82
2022/11/05 06:54:02;;;;;;;18.27;10.00;;;;;;;8.73;76.90;99953.97;5027436;28;20312;-83
2022/11/05 06:56:27;;;;;;;25.98;12.57;;;;;;;8.51;77.57;99960.09;5031266;28;20396;-81
2022/11/05 06:58:52;;;;;;;23.50;12.70;;;;;;;8.63;77.16;99960.06;5031116;28;20041;-80
2022/11/05 07:01:18;;;;;;;21.80;10.87;;;;;;;8.52;77.30;99963.66;5027486;28;20742;-82
2022/11/05 07:03:44;;;;;;;18.33;10.98;;;;;;;8.61;77.82;99969.53;5005833;28;20255;-82
2022/11/05 07:06:09;;;;;;;21.85;13.48;;;;;;;8.55;77.93;99962.31;5011417;28;20030;-85
2022/11/05 07:08:36;;;;;;;23.48;11.55;;;;;;;8.62;77.38;99965.75;5010967;28;20026;-80
2022/11/05 07:11:02;;;;;;;23.98;12.90;;;;;;;8.67;77.82;99975.84;5011742;28;20026;-86
2022/11/05 07:13:28;;;;;;;29.20;13.13;;;;;;;8.78;77.36;99982.28;5010539;28;20041;-81
2022/11/05 07:15:53;;;;;;;22.25;12.27;;;;;;;8.83;77.04;99985.09;5011484;28;20040;-80
2022/11/05 07:18:18;;;;;;;26.35;13.70;;;;;;;8.74;77.55;99979.25;5016240;28;20049;-82
2022/11/05 07:20:44;;;;;;;24.25;12.82;;;;;;;8.89;76.86;99986.81;5030571;28;20432;-81
2022/11/05 07:23:11;;;;;;;29.60;14.18;;;;;;;8.82;77.37;99989.72;5015829;28;20041;-82
2022/11/05 07:25:37;;;;;;;27.67;13.23;;;;;;;8.88;77.07;99990.63;5010758;28;20085;-83
2022/11/05 07:28:03;;;;;;;22.75;12.38;;;;;;;8.93;77.03;99993.41;5010601;28;20073;-84
2022/11/05 07:30:29;;;;;;;24.10;13.65;;;;;;;8.87;77.25;99991.69;5011154;28;20095;-79
2022/11/05 07:32:54;;;;;;;20.75;11.32;;;;;;;8.83;77.26;99987.81;5010741;28;20038;-84
2022/11/05 07:35:20;;;;;;;26.40;15.20;;;;;;;8.81;77.73;99995.38;5010889;28;20049;-83
2022/11/05 07:37:48;;;;;;;20.02;12.23;;;;;;;8.90;77.71;99993.91;5010561;28;20394;-82
2022/11/05 07:40:15;;;;;;;23.05;12.80;;;;;;;8.97;77.94;99996.47;5011110;28;20032;-82
2022/11/05 07:42:48;;;;;;;25.50;14.48;;;;;;;8.89;78.03;99997.69;5011560;28;20045;-83
2022/11/05 07:45:14;;;;;;;23.45;14.07;;;;;;;8.96;78.20;100006.53;5010183;28;20034;-86
2022/11/05 07:47:50;;;;;;;25.35;15.23;;;;;;;9.05;77.46;100012.34;5011641;28;20037;-83
2022/11/05 07:50:18;;;;;;;29.92;13.32;;;;;;;9.03;77.47;100005.53;5031023;28;20049;-83
2022/11/05 07:52:44;;;;;;;23.33;12.48;;;;;;;8.94;78.24;100005.94;5023930;28;20049;-84
2022/11/05 07:55:10;;;;;;;26.50;15.57;;;;;;;9.11;78.50;100008.63;5010801;28;20053;-82
2022/11/05 07:57:43;;;;;;;23.40;12.75;;;;;;;9.05;78.30;100001.47;5010646;28;20041;-81
2022/11/05 08:00:11;;;;;;;22.65;12.48;;;;;;;9.18;78.53;100015.81;5010536;28;20048;-82
2022/11/05 08:02:36;;;;;;;22.60;12.13;;;;;;;9.25;77.72;100021.09;5010544;28;20053;-82
2022/11/05 08:05:02;;;;;;;24.27;12.82;;;;;;;9.28;78.42;100021.41;5010581;28;20081;-85
2022/11/05 08:07:27;;;;;;;25.23;14.52;;;;;;;9.22;77.75;100017.78;4993171;28;20375;-82
2022/11/05 08:09:52;;;;;;;24.67;12.47;;;;;;;9.42;77.65;100018.31;5008575;28;20531;-82
2022/11/05 08:12:17;;;;;;;22.87;12.50;;;;;;;9.41;77.84;100025.69;5012195;28;20282;-79
2022/11/05 08:14:43;;;;;;;22.63;11.68;;;;;;;9.48;77.96;100021.97;5030835;28;20283;-82
2022/11/05 08:17:08;;;;;;;27.35;16.70;;;;;;;9.33;78.00;100012.50;5023827;28;20029;-83
2022/11/05 08:19:33;;;;;;;19.75;12.20;;;;;;;9.36;78.22;100022.06;5013940;28;20057;-81
2022/11/05 08:21:58;;;;;;;35.33;17.02;;;;;;;9.31;78.37;100025.53;5009640;28;20070;-82
2022/11/05 08:24:24;;;;;;;25.47;13.07;;;;;;;9.38;78.59;100026.16;5010530;28;20053;-84
2022/11/05 08:26:49;;;;;;;21.23;12.85;;;;;;;9.36;78.70;100022.88;5010398;28;20272;-82
2022/11/05 08:29:14;;;;;;;19.50;10.97;;;;;;;9.36;78.80;100022.88;5014012;28;20044;-82
2022/11/05 08:31:40;;;;;;;27.83;12.85;;;;;;;9.56;78.08;100029.66;5009017;28;20365;-84
2022/11/05 08:34:05;;;;;;;21.93;13.03;;;;;;;9.41;78.57;100031.13;5007315;28;20169;-83
2022/11/05 08:36:30;;;;;;;20.17;10.70;;;;;;;9.42;78.53;100027.31;5008585;28;20290;-86
2022/11/05 08:38:55;;;;;;;20.30;11.53;;;;;;;9.50;78.67;100027.97;5009629;28;20259;-83
2022/11/05 08:41:20;;;;;;;19.80;10.88;;;;;;;9.69;77.79;100032.03;5012935;28;20366;-83
2022/11/05 08:43:46;;;;;;;23.07;12.70;;;;;;;9.54;78.60;100040.00;5008024;28;20034;-81
2022/11/05 08:46:11;;;;;;;22.37;12.07;;;;;;;9.60;78.46;100041.69;5011860;28;20744;-82
2022/11/05 08:48:36;;;;;;;18.10;10.67;;;;;;;9.75;78.33;100037.53;5010853;28;20317;-81
2022/11/05 08:51:02;;;;;;;17.75;9.88;;;;;;;9.72;77.75;100040.78;5018189;28;20325;-81
2022/11/05 08:53:27;;;;;;;21.33;11.57;;;;;;;9.63;78.01;100048.53;5008888;28;20132;-82
2022/11/05 08:55:56;;;;;;;20.03;11.13;;;;;;;9.61;77.80;100046.09;5017031;28;20298;-83
2022/11/05 08:58:21;;;;;;;14.75;8.57;;;;;;;9.74;77.74;100046.78;5011193;28;21089;-82
2022/11/05 09:00:48;;;;;;;20.40;10.65;;;;;;;9.84;77.17;100049.66;5013714;28;20058;-82
2022/11/05 09:03:14;;;;;;;21.55;10.00;;;;;;;9.82;77.50;100049.09;5016275;28;20033;-83
2022/11/05 09:05:40;;;;;;;21.10;8.88;;;;;;;9.83;77.37;100044.44;5011243;28;20372;-83
2022/11/05 09:08:14;;;;;;;13.10;8.02;;;;;;;9.66;77.64;100048.84;5012414;28;20113;-82
2022/11/05 09:10:40;;;;;;;16.77;9.60;;;;;;;9.74;77.32;100050.34;5013271;28;20034;-80
2022/11/05 09:13:06;;;;;;;15.48;8.88;;;;;;;9.84;77.17;100041.47;5021280;28;20038;-82
2022/11/05 09:15:32;;;;;;;15.63;8.82;;;;;;;9.93;76.91;100050.00;5010578;28;20133;-81
2022/11/05 09:17:58;;;;;;;18.90;9.02;;;;;;;9.88;77.06;100050.78;5023092;28;20554;-81
2022/11/05 09:20:24;;;;;;;19.02;8.45;;;;;;;10.02;77.16;100058.56;5020277;28;20029;-79
2022/11/05 09:22:49;;;;;;;17.48;8.35;;;;;;;10.04;76.20;100048.25;5012517;28;20049;-84
2022/11/05 09:25:14;;;;;;;23.30;11.85;;;;;;;10.01;76.58;100048.75;5029990;28;20038;-81
2022/11/05 09:27:40;;;;;;;20.23;11.10;;;;;;;10.16;76.30;100046.22;5032650;28;20029;-81
2022/11/05 09:30:06;;;;;;;19.10;9.98;;;;;;;10.23;76.19;100051.44;5014771;28;20036;-84
2022/11/05 09:32:31;;;;;;;14.02;7.78;;;;;;;10.41;75.50;100054.94;5024467;28;20053;-82
2022/11/05 09:34:59;;;;;;;18.35;8.02;;;;;;;10.46;75.65;100060.44;5013008;28;20034;-82
2022/11/05 09:37:24;;;;;;;16.33;8.43;;;;;;;10.24;75.37;100061.28;5012595;28;20038;-82
2022/11/05 09:39:49;;;;;;;18.10;7.28;;;;;;;10.36;75.82;100063.03;5012646;28;20558;-83
2022/11/05 09:42:17;;;;;;;18.23;9.30;;;;;;;10.32;76.08;100060.00;5014518;28;20038;-83
2022/11/05 09:44:48;;;;;;;12.68;8.00;;;;;;;10.55;75.61;100063.56;5032671;28;20585;-81
2022/11/05 09:47:19;;;;;;;16.27;7.65;;;;;;;10.53;74.63;100065.72;5031901;28;20056;-83
2022/11/05 09:49:49;;;;;;;14.45;6.88;;;;;;;10.42;75.36;100077.53;5023641;28;20057;-81
2022/11/05 09:52:26;;;;;;;16.58;6.88;;;;;;;10.44;74.72;100068.03;5011088;28;20042;-82
2022/11/05 09:54:53;;;;;;;12.30;6.25;;;;;;;10.54;75.52;100072.78;5011740;28;20038;-82
2022/11/05 09:57:23;;;;;;;15.80;7.90;;;;;;;10.64;74.40;100076.72;5011871;28;20037;-82
2022/11/05 09:59:55;;;;;;;15.10;7.38;;;;;;;10.82;73.92;100073.59;5012678;28;20061;-84
2022/11/05 10:02:31;;;;;;;13.45;7.00;;;;;;;10.72;73.47;100073.50;5012259;28;20034;-84
2022/11/05 10:05:03;;;;;;;11.65;6.43;;;;;;;10.79;73.82;100067.84;5012021;28;20029;-84
2022/11/05 10:07:34;;;;;;;14.25;7.28;;;;;;;10.83;73.70;100068.97;5011590;28;20641;-78
2022/11/05 10:10:04;;;;;;;17.77;6.15;;;;;;;10.86;73.12;100069.28;5011200;28;20087;-85
2022/11/05 10:12:48;;;;;;;15.98;7.38;;;;;;;10.73;72.71;100076.00;5011574;28;20026;-85
2022/11/05 10:15:31;;;;;;;10.27;5.68;;;;;;;10.88;73.17;100070.94;5012598;28;20039;-82
2022/11/05 10:18:03;;;;;;;12.45;6.57;;;;;;;10.82;73.17;100073.59;5014616;28;20026;-89
2022/11/05 10:20:34;;;;;;;18.33;6.35;;;;;;;11.01;72.14;100075.13;5031741;28;20099;-78
2022/11/05 10:23:07;;;;;;;15.45;6.75;;;;;;;11.02;71.79;100074.88;5023569;28;20687;-86
2022/11/05 10:25:36;;;;;;;9.20;4.87;;;;;;;11.09;71.82;100080.09;5031751;28;20057;-85
2022/11/05 10:28:03;;;;;;;13.85;5.32;;;;;;;10.97;71.54;100069.38;5031839;28;20026;-83
2022/11/05 10:30:28;;;;;;;10.60;6.30;;;;;;;10.86;72.60;100080.19;5031591;28;20029;-83
2022/11/05 10:32:57;;;;;;;11.57;5.32;;;;;;;10.85;71.95;100084.00;5023555;28;20386;-84
2022/11/05 10:35:25;;;;;;;11.88;6.57;;;;;;;10.90;72.53;100079.69;5011346;28;20037;-83
2022/11/05 10:37:52;;;;;;;10.95;5.68;;;;;;;11.03;72.11;100087.44;5011183;28;20692;-84
2022/11/05 10:40:48;;;;;;;11.07;5.15;;;;;;;11.06;71.78;100076.00;5011505;28;20101;-83
2022/11/05 10:43:24;;;;;;;14.15;5.35;;;;;;;11.11;70.96;100080.66;5011134;28;20068;-83
2022/11/05 10:45:59;;;;;;;8.93;4.70;;;;;;;11.11;70.76;100079.84;5011268;28;20403;-86
2022/11/05 10:48:44;;;;;;;16.60;4.80;;;;;;;11.13;71.12;100083.13;5017493;28;20034;-85
2022/11/05 10:51:11;;;;;;;11.82;4.85;;;;;;;11.25;70.58;100089.22;5014054;28;20033;-86
2022/11/05 10:53:37;;;;;;;19.95;6.57;;;;;;;11.48;70.70;100089.94;5024059;28;20037;-86
2022/11/05 10:56:23;;;;;;;11.55;5.78;;;;;;;11.38;70.17;100085.25;5030910;28;20033;-82
2022/11/05 10:58:55;;;;;;;10.02;5.43;;;;;;;11.68;69.40;100088.41;5030832;28;20029;-85
2022/11/05 11:01:23;;;;;;;46.45;7.55;;;;;;;11.77;69.36;100086.84;5016474;28;20033;-86
2022/11/05 11:03:51;;;;;;;17.48;8.10;;;;;;;11.72;69.30;100092.28;5011296;28;20040;-86
2022/11/05 11:06:19;;;;;;;17.20;8.75;;;;;;;11.64;68.08;100077.22;5010699;28;20040;-92
2022/11/05 11:08:47;;;;;;;10.98;5.68;;;;;;;11.68;68.98;100080.22;5011216;28;20626;-84
2022/11/05 11:11:27;;;;;;;10.60;4.82;;;;;;;11.78;68.07;100085.75;5011068;28;20029;-82
2022/11/05 11:14:10;;;;;;;12.55;4.70;;;;;;;11.62;68.09;100084.00;5010759;28;20033;-85
2022/11/05 11:17:14;;;;;;;12.05;4.72;;;;;;;11.74;67.52;100081.91;5010731;28;20380;-83
2022/11/05 11:19:39;;;;;;;7.45;4.13;;;;;;;11.86;67.05;100089.88;5027482;28;20044;-92
2022/11/05 11:22:04;;;;;;;9.57;4.87;;;;;;;11.76;67.51;100087.94;5029296;28;20378;-82
2022/11/05 11:24:36;;;;;;;10.13;4.30;;;;;;;11.84;67.92;100083.88;5010908;28;20271;-84
2022/11/05 11:27:10;;;;;;;9.32;4.30;;;;;;;11.83;66.97;100082.22;5010560;28;20040;-83
2022/11/05 11:29:38;;;;;;;17.65;4.78;;;;;;;12.00;67.06;100081.22;5011526;28;20030;-85
2022/11/05 11:32:12;;;;;;;7.10;3.70;;;;;;;11.87;66.45;100079.78;5011439;28;20474;-85
2022/11/05 11:34:39;;;;;;;;;;;;;;;11.84;66.09;100083.88;5031259;28;20047;-83
2022/11/05 11:37:13;;;;;;;7.95;4.18;;;;;;;11.86;66.12;100075.41;5030017;28;19924;-85
2022/11/05 11:39:39;;;;;;;8.43;3.75;;;;;;;11.91;66.07;100078.16;5030701;28;20032;-83
2022/11/05 11:42:26;;;;;;;7.65;3.50;;;;;;;11.74;66.35;100070.97;5029244;28;20124;-83
2022/11/05 11:44:51;;;;;;;9.60;4.50;;;;;;;11.79;65.26;100079.22;5011008;28;20129;-87
2022/11/05 11:47:19;;;;;;;11.55;3.75;;;;;;;11.86;66.37;100083.59;5010790;28;20113;-87
2022/11/05 11:49:59;;;;;;;9.55;4.03;;;;;;;11.83;66.07;100084.13;5027837;28;20119;-85
2022/11/05 11:52:27;;;;;;;9.15;3.80;;;;;;;11.98;66.25;100070.53;5014669;28;20025;-86
2022/11/05 11:55:15;;;;;;;8.35;3.63;;;;;;;12.00;66.01;100073.81;5030089;28;20041;-85
2022/11/05 11:57:47;;;;;;;68.72;40.60;;;;;;;12.01;66.40;100070.03;5031319;28;20033;-89
2022/11/05 12:00:13;;;;;;;19.92;6.03;;;;;;;12.16;65.54;100063.00;5031095;28;20033;-85
2022/11/05 12:03:03;;;;;;;8.45;2.83;;;;;;;12.28;65.04;100070.97;5024375;28;20037;-87
2022/11/05 12:05:59;;;;;;;10.00;4.78;;;;;;;12.29;64.94;100075.34;5010934;28;20398;-85
2022/11/05 12:08:50;;;;;;;12.38;6.13;;;;;;;12.16;64.20;100064.91;5010701;28;20030;-86
2022/11/05 12:11:24;;;;;;;11.45;5.03;;;;;;;12.49;63.83;100076.47;5010306;28;20475;-86
2022/11/05 12:14:11;;;;;;;7.10;3.83;;;;;;;12.58;64.12;100090.44;5025236;28;20034;-86
2022/11/05 12:16:45;;;;;;;6.80;3.33;;;;;;;12.44;64.13;100080.03;5020138;28;20026;-91
2022/11/05 12:19:23;;;;;;;9.00;4.07;;;;;;;12.40;63.94;100083.56;5021273;28;20065;-88
2022/11/05 12:22:08;;;;;;;11.07;4.90;;;;;;;12.43;64.17;100083.84;5010753;28;20050;-89